CST,Max TemperatureF,Mean TemperatureF,Min TemperatureF,Max Dew PointF,MeanDew PointF,Min DewpointF,Max Humidity, Mean Humidity, Min Humidity, Max Sea Level PressureIn, Mean Sea Level PressureIn, Min Sea Level PressureIn, Max VisibilityMiles, Mean VisibilityMiles, Min VisibilityMiles, Max Wind SpeedMPH, Mean Wind SpeedMPH, Max Gust SpeedMPH,PrecipitationIn, CloudCover, Events, WindDirDegrees
2012-12-1,58,45,31,53,41,30,100,86,71,30.16,30.03,29.88,10,4,0,17,8,23,0.01,6,Fog-Rain,154
2012-12-2,64,54,44,53,48,44,100,74,48,30.07,30.00,29.87,10,5,0,10,4,13,0.00,6,Fog,192
2012-12-3,69,57,44,61,55,44,100,87,73,30.03,29.87,29.75,10,4,0,24,12,32,0.47,8,Fog-Rain,189
2012-12-4,58,46,34,43,34,22,92,66,40,30.35,30.15,29.97,10,10,10,20,8,24,0.00,4,,293
2012-12-5,39,32,24,27,21,15,85,67,48,30.48,30.37,30.23,10,10,10,16,8,21,0.00,5,,96
2012-12-6,46,39,32,39,33,28,82,76,70,30.21,30.03,29.93,10,10,7,17,9,21,0.01,8,Rain,175
2012-12-7,43,41,38,40,33,29,92,75,57,30.00,29.96,29.93,10,10,6,14,7,17,0.04,8,Rain,26
2012-12-8,39,36,33,33,31,30,96,83,70,30.12,30.04,29.92,10,9,4,16,8,20,0.01,8,Rain-Snow,32
2012-12-9,39,36,33,39,35,31,96,86,76,30.09,29.87,29.74,10,5,1,17,8,22,0.19,8,Rain-Snow,72
2012-12-10,34,32,29,32,27,22,100,88,75,29.99,29.85,29.74,10,8,5,22,12,28,T,8,Snow,305
2012-12-11,35,27,19,25,20,16,92,73,53,30.17,30.03,29.95,10,10,7,20,10,24,T,4,Snow,226
2012-12-12,46,35,24,28,24,19,81,63,45,30.29,30.24,30.17,10,10,10,21,11,28,0.00,1,,185
2012-12-13,48,38,28,28,26,23,85,64,42,30.26,30.19,30.10,10,10,10,23,11,28,0.00,3,,183
2012-12-14,50,37,24,35,29,22,92,71,50,30.22,30.13,30.01,10,10,8,13,6,16,0.00,4,,146
2012-12-15,48,45,41,47,42,34,100,85,70,29.99,29.69,29.55,10,6,1,24,12,33,0.36,8,Rain,176
2012-12-16,48,43,38,45,37,33,92,86,79,29.76,29.67,29.57,10,9,6,17,12,23,0.03,8,Rain,268
2012-12-17,37,34,30,32,28,25,89,82,75,29.78,29.75,29.71,10,8,5,10,4,13,0.00,8,,319
2012-12-18,39,35,30,36,30,26,96,89,82,29.90,29.72,29.57,8,5,4,18,7,22,T,8,Snow,136
2012-12-19,37,34,31,35,30,28,92,84,75,30.07,29.99,29.80,9,6,3,17,6,23,0.08,8,Rain-Snow,58
2012-12-20,41,36,30,40,34,24,100,93,85,29.73,29.40,29.12,9,3,0,33,21,45,1.27,8,Fog-Rain-Snow,14
2012-12-21,30,23,15,23,14,9,84,73,62,30.25,30.03,29.67,10,10,9,31,15,41,0.00,2,,317
2012-12-22,29,20,10,21,14,7,92,81,69,30.27,30.15,29.99,10,10,7,14,4,16,0.00,3,,184
2012-12-23,27,21,14,22,18,10,92,84,75,30.10,30.04,29.97,10,9,5,20,8,23,0.00,6,,28
2012-12-24,31,26,20,25,21,14,88,83,77,30.18,30.01,29.92,10,10,9,15,9,18,0.00,8,,8
2012-12-25,26,20,13,18,14,11,88,78,68,30.39,30.32,30.19,10,10,10,17,10,20,0.00,4,,10
2012-12-26,28,26,23,22,20,18,88,79,69,30.25,30.16,30.06,10,10,10,23,14,29,T,8,Snow,9
2012-12-27,30,27,24,23,21,18,81,78,74,30.24,30.18,30.12,10,10,10,16,8,22,T,8,Snow,24
2012-12-28,31,29,27,29,27,22,92,85,78,30.14,30.00,29.90,10,5,1,12,4,13,0.01,8,Rain-Snow,134
2012-12-29,30,22,13,28,19,10,92,83,73,30.27,30.07,29.90,10,8,2,21,12,25,0.01,7,Snow,306
2012-12-30,34,21,8,25,16,6,92,80,68,30.37,30.26,30.06,10,8,6,20,8,25,0.00,4,,200
2012-12-31,35,26,17,25,18,8,84,72,59,30.21,30.10,30.01,10,10,7,20,10,26,0.00,8,,297